sensor_id;sensor_type;location;lat;lon;timestamp;pressure;altitude;pressure_sealevel;temperature;humidity
71559;BME280;59382;43.852;25.952;2022-08-19T00:01:16;100738.69;;;29.57;44.68
71559;BME280;59382;43.852;25.952;2022-08-19T00:03:42;100733.81;;;29.54;44.86
71559;BME280;59382;43.852;25.952;2022-08-19T00:06:08;100743.59;;;29.60;45.21
71559;BME280;59382;43.852;25.952;2022-08-19T00:08:35;100749.16;;;29.60;45.01
71559;BME280;59382;43.852;25.952;2022-08-19T00:11:01;100733.53;;;29.47;45.45
71559;BME280;59382;43.852;25.952;2022-08-19T00:13:26;100748.72;;;29.49;46.12
71559;BME280;59382;43.852;25.952;2022-08-19T00:15:54;100753.19;;;29.42;46.72
71559;BME280;59382;43.852;25.952;2022-08-19T00:18:20;100751.44;;;29.37;47.09
71559;BME280;59382;43.852;25.952;2022-08-19T00:20:46;100735.94;;;29.28;47.58
71559;BME280;59382;43.852;25.952;2022-08-19T00:23:11;100731.88;;;29.25;47.83
71559;BME280;59382;43.852;25.952;2022-08-19T00:25:37;100744.75;;;29.30;48.18
71559;BME280;59382;43.852;25.952;2022-08-19T00:28:03;100735.44;;;29.26;48.42
71559;BME280;59382;43.852;25.952;2022-08-19T00:30:29;100746.66;;;29.38;48.31
71559;BME280;59382;43.852;25.952;2022-08-19T00:32:55;100743.44;;;29.36;48.66
71559;BME280;59382;43.852;25.952;2022-08-19T00:35:21;100736.72;;;29.37;48.68
71559;BME280;59382;43.852;25.952;2022-08-19T00:37:48;100746.00;;;29.41;48.91
71559;BME280;59382;43.852;25.952;2022-08-19T00:40:14;100737.19;;;29.39;48.99
71559;BME280;59382;43.852;25.952;2022-08-19T00:42:40;100705.94;;;29.13;49.56
71559;BME280;59382;43.852;25.952;2022-08-19T00:45:14;100743.59;;;29.31;49.75
71559;BME280;59382;43.852;25.952;2022-08-19T00:47:44;100736.75;;;29.28;50.01
71559;BME280;59382;43.852;25.952;2022-08-19T00:50:13;100724.72;;;29.16;50.45
71559;BME280;59382;43.852;25.952;2022-08-19T00:52:42;100747.06;;;29.28;50.57
71559;BME280;59382;43.852;25.952;2022-08-19T00:55:22;100747.72;;;29.25;50.54
71559;BME280;59382;43.852;25.952;2022-08-19T00:57:58;100742.69;;;29.18;51.12
71559;BME280;59382;43.852;25.952;2022-08-19T01:00:27;100737.94;;;29.19;51.15
71559;BME280;59382;43.852;25.952;2022-08-19T01:02:53;100730.28;;;29.16;51.16
71559;BME280;59382;43.852;25.952;2022-08-19T01:05:22;100726.34;;;29.17;51.23
71559;BME280;59382;43.852;25.952;2022-08-19T01:07:49;100729.13;;;29.17;50.85
71559;BME280;59382;43.852;25.952;2022-08-19T01:10:20;100718.38;;;29.07;50.49
71559;BME280;59382;43.852;25.952;2022-08-19T01:12:47;100730.59;;;29.14;50.00
71559;BME280;59382;43.852;25.952;2022-08-19T01:15:16;100723.28;;;29.10;49.51
71559;BME280;59382;43.852;25.952;2022-08-19T01:17:44;100730.00;;;29.09;49.24
71559;BME280;59382;43.852;25.952;2022-08-19T01:20:13;100720.19;;;29.03;49.18
71559;BME280;59382;43.852;25.952;2022-08-19T01:22:45;100737.84;;;29.07;49.75
71559;BME280;59382;43.852;25.952;2022-08-19T01:25:13;100742.22;;;29.08;49.57
71559;BME280;59382;43.852;25.952;2022-08-19T01:27:42;100727.53;;;28.99;49.75
71559;BME280;59382;43.852;25.952;2022-08-19T01:30:11;100733.09;;;28.99;49.83
71559;BME280;59382;43.852;25.952;2022-08-19T01:32:37;100742.09;;;29.04;49.77
71559;BME280;59382;43.852;25.952;2022-08-19T01:35:03;100744.03;;;29.04;50.10
71559;BME280;59382;43.852;25.952;2022-08-19T01:37:40;100728.19;;;28.96;50.50
71559;BME280;59382;43.852;25.952;2022-08-19T01:40:07;100736.06;;;28.94;50.67
71559;BME280;59382;43.852;25.952;2022-08-19T01:42:33;100731.00;;;28.87;51.07
71559;BME280;59382;43.852;25.952;2022-08-19T01:45:00;100744.84;;;28.96;51.06
71559;BME280;59382;43.852;25.952;2022-08-19T01:47:26;100744.19;;;28.99;51.15
71559;BME280;59382;43.852;25.952;2022-08-19T01:49:51;100749.63;;;28.95;51.03
71559;BME280;59382;43.852;25.952;2022-08-19T01:52:17;100755.97;;;28.96;51.18
71559;BME280;59382;43.852;25.952;2022-08-19T01:54:43;100751.56;;;28.95;50.90
71559;BME280;59382;43.852;25.952;2022-08-19T01:57:11;100735.59;;;28.83;51.15
71559;BME280;59382;43.852;25.952;2022-08-19T01:59:38;100730.41;;;28.73;51.46
71559;BME280;59382;43.852;25.952;2022-08-19T02:02:05;100762.88;;;28.90;51.87
71559;BME280;59382;43.852;25.952;2022-08-19T02:04:34;100759.44;;;28.84;52.24
71559;BME280;59382;43.852;25.952;2022-08-19T02:07:00;100752.13;;;28.80;52.27
71559;BME280;59382;43.852;25.952;2022-08-19T02:09:26;100753.75;;;28.81;52.61
71559;BME280;59382;43.852;25.952;2022-08-19T02:11:52;100780.06;;;28.83;52.38
71559;BME280;59382;43.852;25.952;2022-08-19T02:14:18;100769.28;;;28.82;52.54
71559;BME280;59382;43.852;25.952;2022-08-19T02:16:44;100765.66;;;28.81;52.46
71559;BME280;59382;43.852;25.952;2022-08-19T02:19:09;100756.72;;;28.76;52.64
71559;BME280;59382;43.852;25.952;2022-08-19T02:21:35;100756.53;;;28.72;52.72
71559;BME280;59382;43.852;25.952;2022-08-19T02:24:01;100773.38;;;28.76;52.65
71559;BME280;59382;43.852;25.952;2022-08-19T02:26:27;100778.94;;;28.76;52.54
71559;BME280;59382;43.852;25.952;2022-08-19T02:28:54;100784.47;;;28.76;52.80
71559;BME280;59382;43.852;25.952;2022-08-19T02:31:22;100779.91;;;28.71;53.01
71559;BME280;59382;43.852;25.952;2022-08-19T02:33:48;100780.56;;;28.68;52.78
71559;BME280;59382;43.852;25.952;2022-08-19T02:36:16;100757.41;;;28.55;52.70
71559;BME280;59382;43.852;25.952;2022-08-19T02:38:42;100783.03;;;28.61;52.72
71559;BME280;59382;43.852;25.952;2022-08-19T02:41:18;100782.72;;;28.54;52.78
71559;BME280;59382;43.852;25.952;2022-08-19T02:43:43;100779.47;;;28.52;52.72
71559;BME280;59382;43.852;25.952;2022-08-19T02:46:13;100775.53;;;28.53;52.74
71559;BME280;59382;43.852;25.952;2022-08-19T02:48:39;100777.03;;;28.50;52.56
71559;BME280;59382;43.852;25.952;2022-08-19T02:51:04;100777.81;;;28.51;52.35
71559;BME280;59382;43.852;25.952;2022-08-19T02:53:30;100787.78;;;28.60;52.61
71559;BME280;59382;43.852;25.952;2022-08-19T02:55:56;100785.31;;;28.59;52.31
71559;BME280;59382;43.852;25.952;2022-08-19T02:58:23;100794.16;;;28.61;52.52
71559;BME280;59382;43.852;25.952;2022-08-19T03:00:52;100788.94;;;28.59;52.41
71559;BME280;59382;43.852;25.952;2022-08-19T03:03:18;100768.03;;;28.45;52.57
71559;BME280;59382;43.852;25.952;2022-08-19T03:05:45;100781.59;;;28.46;52.79
71559;BME280;59382;43.852;25.952;2022-08-19T03:08:11;100784.19;;;28.51;52.71
71559;BME280;59382;43.852;25.952;2022-08-19T03:10:55;100788.78;;;28.47;53.18
71559;BME280;59382;43.852;25.952;2022-08-19T03:13:21;100789.25;;;28.49;52.68
71559;BME280;59382;43.852;25.952;2022-08-19T03:15:47;100785.81;;;28.52;52.82
71559;BME280;59382;43.852;25.952;2022-08-19T03:18:14;100786.97;;;28.51;52.60
71559;BME280;59382;43.852;25.952;2022-08-19T03:20:42;100776.69;;;28.43;52.17
71559;BME280;59382;43.852;25.952;2022-08-19T03:23:08;100793.66;;;28.50;52.09
71559;BME280;59382;43.852;25.952;2022-08-19T03:25:41;100786.94;;;28.43;52.66
71559;BME280;59382;43.852;25.952;2022-08-19T03:28:12;100784.50;;;28.41;52.56
71559;BME280;59382;43.852;25.952;2022-08-19T03:30:39;100791.69;;;28.42;52.96
71559;BME280;59382;43.852;25.952;2022-08-19T03:33:07;100803.81;;;28.46;53.06
71559;BME280;59382;43.852;25.952;2022-08-19T03:35:33;100798.88;;;28.43;53.06
71559;BME280;59382;43.852;25.952;2022-08-19T03:38:00;100810.00;;;28.43;53.04
71559;BME280;59382;43.852;25.952;2022-08-19T03:40:26;100805.09;;;28.40;53.35
71559;BME280;59382;43.852;25.952;2022-08-19T03:42:51;100807.88;;;28.40;53.20
71559;BME280;59382;43.852;25.952;2022-08-19T03:45:17;100798.53;;;28.36;53.44
71559;BME280;59382;43.852;25.952;2022-08-19T03:47:43;100801.50;;;28.31;53.25
71559;BME280;59382;43.852;25.952;2022-08-19T03:50:09;100811.94;;;28.34;53.35
71559;BME280;59382;43.852;25.952;2022-08-19T03:52:35;100822.72;;;28.36;53.09
71559;BME280;59382;43.852;25.952;2022-08-19T03:55:02;100825.50;;;28.36;52.70
71559;BME280;59382;43.852;25.952;2022-08-19T03:57:28;100826.16;;;28.33;52.75
71559;BME280;59382;43.852;25.952;2022-08-19T03:59:53;100810.44;;;28.20;53.04
71559;BME280;59382;43.852;25.952;2022-08-19T04:02:19;100812.25;;;28.16;52.77
71559;BME280;59382;43.852;25.952;2022-08-19T04:04:45;100817.81;;;28.24;53.21
71559;BME280;59382;43.852;25.952;2022-08-19T04:07:12;100829.72;;;28.25;52.82
71559;BME280;59382;43.852;25.952;2022-08-19T04:09:41;100826.97;;;28.16;52.98
71559;BME280;59382;43.852;25.952;2022-08-19T04:12:07;100835.94;;;28.13;53.00
71559;BME280;59382;43.852;25.952;2022-08-19T04:14:34;100831.69;;;28.07;53.01
71559;BME280;59382;43.852;25.952;2022-08-19T04:17:00;100827.75;;;28.08;53.14
71559;BME280;59382;43.852;25.952;2022-08-19T04:19:29;100804.41;;;27.92;52.86
71559;BME280;59382;43.852;25.952;2022-08-19T04:21:55;100836.06;;;28.08;52.26
71559;BME280;59382;43.852;25.952;2022-08-19T04:24:21;100840.16;;;28.11;52.27
71559;BME280;59382;43.852;25.952;2022-08-19T04:26:48;100845.06;;;28.14;51.96
71559;BME280;59382;43.852;25.952;2022-08-19T04:29:16;100843.75;;;28.11;51.93
71559;BME280;59382;43.852;25.952;2022-08-19T04:31:44;100840.66;;;28.13;51.72
71559;BME280;59382;43.852;25.952;2022-08-19T04:34:11;100831.50;;;28.12;51.60
71559;BME280;59382;43.852;25.952;2022-08-19T04:36:39;100838.38;;;28.23;51.51
71559;BME280;59382;43.852;25.952;2022-08-19T04:39:09;100841.16;;;28.23;51.24
71559;BME280;59382;43.852;25.952;2022-08-19T04:41:36;100829.22;;;28.23;51.17
71559;BME280;59382;43.852;25.952;2022-08-19T04:44:20;100823.34;;;28.24;50.88
71559;BME280;59382;43.852;25.952;2022-08-19T04:46:48;100822.03;;;28.30;50.99
71559;BME280;59382;43.852;25.952;2022-08-19T04:49:15;100827.94;;;28.37;50.88
71559;BME280;59382;43.852;25.952;2022-08-19T04:51:44;100828.75;;;28.38;51.20
71559;BME280;59382;43.852;25.952;2022-08-19T04:54:11;100833.81;;;28.44;50.48
71559;BME280;59382;43.852;25.952;2022-08-19T04:56:38;100832.53;;;28.50;50.58
71559;BME280;59382;43.852;25.952;2022-08-19T04:59:04;100832.69;;;28.54;50.49
71559;BME280;59382;43.852;25.952;2022-08-19T05:01:31;100831.69;;;28.58;50.49
71559;BME280;59382;43.852;25.952;2022-08-19T05:04:01;100828.25;;;28.61;50.53
71559;BME280;59382;43.852;25.952;2022-08-19T05:06:30;100825.03;;;28.59;50.32
71559;BME280;59382;43.852;25.952;2022-08-19T05:09:05;100841.34;;;28.70;50.23
71559;BME280;59382;43.852;25.952;2022-08-19T05:11:34;100835.13;;;28.73;50.34
71559;BME280;59382;43.852;25.952;2022-08-19T05:14:08;100824.69;;;28.70;50.36
71559;BME280;59382;43.852;25.952;2022-08-19T05:16:34;100839.38;;;28.79;50.83
71559;BME280;59382;43.852;25.952;2022-08-19T05:19:00;100830.88;;;28.84;50.65
71559;BME280;59382;43.852;25.952;2022-08-19T05:21:44;100825.16;;;28.80;50.78
71559;BME280;59382;43.852;25.952;2022-08-19T05:24:29;100822.34;;;28.89;50.83
71559;BME280;59382;43.852;25.952;2022-08-19T05:26:55;100825.91;;;28.98;51.18
71559;BME280;59382;43.852;25.952;2022-08-19T05:29:26;100840.94;;;29.14;50.97
71559;BME280;59382;43.852;25.952;2022-08-19T05:31:52;100841.25;;;29.21;50.82
71559;BME280;59382;43.852;25.952;2022-08-19T05:34:19;100829.47;;;29.24;50.60
71559;BME280;59382;43.852;25.952;2022-08-19T05:36:48;100833.19;;;29.36;50.32
71559;BME280;59382;43.852;25.952;2022-08-19T05:39:17;100833.78;;;29.50;50.17
71559;BME280;59382;43.852;25.952;2022-08-19T05:41:46;100848.63;;;29.63;50.09
71559;BME280;59382;43.852;25.952;2022-08-19T05:44:12;100842.88;;;29.68;50.18
71559;BME280;59382;43.852;25.952;2022-08-19T05:46:39;100856.88;;;29.80;50.06
71559;BME280;59382;43.852;25.952;2022-08-19T05:49:06;100860.44;;;29.89;50.32
71559;BME280;59382;43.852;25.952;2022-08-19T05:51:34;100844.34;;;29.94;49.76
71559;BME280;59382;43.852;25.952;2022-08-19T05:54:01;100860.13;;;30.11;50.05
71559;BME280;59382;43.852;25.952;2022-08-19T05:56:27;100856.09;;;30.29;49.49
71559;BME280;59382;43.852;25.952;2022-08-19T05:58:53;100848.97;;;30.40;49.47
71559;BME280;59382;43.852;25.952;2022-08-19T06:01:20;100868.03;;;30.71;49.06
71559;BME280;59382;43.852;25.952;2022-08-19T06:03:46;100863.19;;;31.00;48.72
71559;BME280;59382;43.852;25.952;2022-08-19T06:06:14;100857.25;;;31.34;47.79
71559;BME280;59382;43.852;25.952;2022-08-19T06:08:40;100839.38;;;31.71;47.02
71559;BME280;59382;43.852;25.952;2022-08-19T06:11:17;100858.63;;;32.24;45.93
71559;BME280;59382;43.852;25.952;2022-08-19T06:13:41;100845.41;;;32.61;45.64
71559;BME280;59382;43.852;25.952;2022-08-19T06:16:07;100846.06;;;32.98;45.08
71559;BME280;59382;43.852;25.952;2022-08-19T06:18:32;100847.53;;;33.23;44.07
71559;BME280;59382;43.852;25.952;2022-08-19T06:20:58;100848.03;;;33.56;43.73
71559;BME280;59382;43.852;25.952;2022-08-19T06:23:24;100843.44;;;33.79;43.21
71559;BME280;59382;43.852;25.952;2022-08-19T06:25:50;100842.06;;;34.04;42.79
71559;BME280;59382;43.852;25.952;2022-08-19T06:28:16;100841.34;;;34.26;42.18
71559;BME280;59382;43.852;25.952;2022-08-19T06:30:41;100842.56;;;34.44;41.36
71559;BME280;59382;43.852;25.952;2022-08-19T06:33:07;100838.94;;;34.63;41.18
71559;BME280;59382;43.852;25.952;2022-08-19T06:35:33;100831.94;;;34.72;40.77
71559;BME280;59382;43.852;25.952;2022-08-19T06:38:04;100843.91;;;34.88;39.94
71559;BME280;59382;43.852;25.952;2022-08-19T06:40:30;100839.63;;;34.94;39.73
71559;BME280;59382;43.852;25.952;2022-08-19T06:42:56;100827.59;;;34.94;39.71
71559;BME280;59382;43.852;25.952;2022-08-19T06:45:24;100828.69;;;35.08;39.30
71559;BME280;59382;43.852;25.952;2022-08-19T06:47:50;100832.78;;;35.14;38.99
71559;BME280;59382;43.852;25.952;2022-08-19T06:50:16;100823.94;;;35.12;39.15
71559;BME280;59382;43.852;25.952;2022-08-19T06:52:42;100834.47;;;35.19;38.70
71559;BME280;59382;43.852;25.952;2022-08-19T06:55:08;100827.75;;;35.23;38.54
71559;BME280;59382;43.852;25.952;2022-08-19T06:57:33;100824.56;;;35.25;38.15
71559;BME280;59382;43.852;25.952;2022-08-19T06:59:59;100830.03;;;35.37;37.90
71559;BME280;59382;43.852;25.952;2022-08-19T07:02:28;100837.25;;;35.38;37.54
71559;BME280;59382;43.852;25.952;2022-08-19T07:04:53;100836.28;;;35.30;37.32
71559;BME280;59382;43.852;25.952;2022-08-19T07:07:21;100838.66;;;35.28;37.27
71559;BME280;59382;43.852;25.952;2022-08-19T07:09:49;100839.38;;;35.25;37.18
71559;BME280;59382;43.852;25.952;2022-08-19T07:12:15;100810.22;;;35.07;36.89
71559;BME280;59382;43.852;25.952;2022-08-19T07:14:41;100841.81;;;35.27;36.96
71559;BME280;59382;43.852;25.952;2022-08-19T07:17:09;100839.38;;;35.25;37.03
71559;BME280;59382;43.852;25.952;2022-08-19T07:19:36;100830.97;;;35.25;37.00
71559;BME280;59382;43.852;25.952;2022-08-19T07:22:05;100822.38;;;35.15;36.96
71559;BME280;59382;43.852;25.952;2022-08-19T07:24:32;100829.06;;;35.29;36.72
71559;BME280;59382;43.852;25.952;2022-08-19T07:27:00;100824.94;;;35.23;36.69
71559;BME280;59382;43.852;25.952;2022-08-19T07:29:28;100829.06;;;35.29;35.95
71559;BME280;59382;43.852;25.952;2022-08-19T07:31:55;100834.66;;;35.29;35.69
71559;BME280;59382;43.852;25.952;2022-08-19T07:34:23;100833.47;;;35.30;35.38
71559;BME280;59382;43.852;25.952;2022-08-19T07:36:49;100834.59;;;35.26;34.81
71559;BME280;59382;43.852;25.952;2022-08-19T07:39:22;100838.59;;;35.25;34.44
71559;BME280;59382;43.852;25.952;2022-08-19T07:41:48;100821.63;;;35.18;34.76
71559;BME280;59382;43.852;25.952;2022-08-19T07:44:16;100822.50;;;35.22;34.55
71559;BME280;59382;43.852;25.952;2022-08-19T07:46:45;100849.94;;;35.32;34.11
71559;BME280;59382;43.852;25.952;2022-08-19T07:49:12;100842.72;;;35.31;34.00
71559;BME280;59382;43.852;25.952;2022-08-19T07:51:43;100843.47;;;35.28;33.84
71559;BME280;59382;43.852;25.952;2022-08-19T07:54:09;100837.66;;;35.17;34.04
71559;BME280;59382;43.852;25.952;2022-08-19T07:56:35;100849.25;;;35.16;34.05
71559;BME280;59382;43.852;25.952;2022-08-19T07:59:00;100864.03;;;35.13;34.30
71559;BME280;59382;43.852;25.952;2022-08-19T08:01:27;100853.91;;;35.08;34.22
71559;BME280;59382;43.852;25.952;2022-08-19T08:03:54;100845.31;;;34.98;34.24
71559;BME280;59382;43.852;25.952;2022-08-19T08:06:39;100848.31;;;35.08;34.28
71559;BME280;59382;43.852;25.952;2022-08-19T08:09:30;100840.31;;;35.10;34.63
71559;BME280;59382;43.852;25.952;2022-08-19T08:12:07;100848.81;;;35.14;34.47
71559;BME280;59382;43.852;25.952;2022-08-19T08:14:41;100822.41;;;34.96;34.54
71559;BME280;59382;43.852;25.952;2022-08-19T08:17:08;100835.69;;;34.99;34.30
71559;BME280;59382;43.852;25.952;2022-08-19T08:19:34;100838.00;;;34.93;34.56
71559;BME280;59382;43.852;25.952;2022-08-19T08:22:01;100829.13;;;34.91;34.44
71559;BME280;59382;43.852;25.952;2022-08-19T08:24:29;100827.66;;;34.97;34.41
71559;BME280;59382;43.852;25.952;2022-08-19T08:26:57;100822.78;;;34.94;34.51
71559;BME280;59382;43.852;25.952;2022-08-19T08:29:24;100818.44;;;34.97;34.51
71559;BME280;59382;43.852;25.952;2022-08-19T08:31:51;100820.31;;;34.89;34.94
71559;BME280;59382;43.852;25.952;2022-08-19T08:34:17;100838.75;;;34.90;35.14
71559;BME280;59382;43.852;25.952;2022-08-19T08:36:45;100826.66;;;34.86;34.99
71559;BME280;59382;43.852;25.952;2022-08-19T08:39:16;100821.91;;;34.90;34.93
71559;BME280;59382;43.852;25.952;2022-08-19T08:47:14;100821.91;;;34.90;35.19
71559;BME280;59382;43.852;25.952;2022-08-19T08:49:59;100816.81;;;34.96;35.14
71559;BME280;59382;43.852;25.952;2022-08-19T08:52:35;100818.19;;;35.05;34.99
71559;BME280;59382;43.852;25.952;2022-08-19T08:55:07;100814.41;;;35.17;34.96
71559;BME280;59382;43.852;25.952;2022-08-19T09:00:26;100784.66;;;35.12;34.63
71559;BME280;59382;43.852;25.952;2022-08-19T09:02:54;100812.22;;;35.29;34.70
71559;BME280;59382;43.852;25.952;2022-08-19T09:05:21;100812.66;;;35.31;34.80
71559;BME280;59382;43.852;25.952;2022-08-19T09:08:08;100815.34;;;35.24;34.15
71559;BME280;59382;43.852;25.952;2022-08-19T09:10:49;100807.94;;;35.13;34.23
71559;BME280;59382;43.852;25.952;2022-08-19T09:16:23;100802.53;;;35.04;34.48
71559;BME280;59382;43.852;25.952;2022-08-19T09:18:57;100812.41;;;35.17;34.63
71559;BME280;59382;43.852;25.952;2022-08-19T09:21:25;100809.72;;;35.24;34.32
71559;BME280;59382;43.852;25.952;2022-08-19T09:23:51;100815.03;;;35.29;34.02
71559;BME280;59382;43.852;25.952;2022-08-19T09:26:19;100817.09;;;35.32;33.88
71559;BME280;59382;43.852;25.952;2022-08-19T09:28:47;100807.78;;;35.28;33.84
71559;BME280;59382;43.852;25.952;2022-08-19T09:31:16;100806.63;;;35.29;33.72
71559;BME280;59382;43.852;25.952;2022-08-19T09:33:43;100801.91;;;35.33;33.74
71559;BME280;59382;43.852;25.952;2022-08-19T09:36:11;100801.00;;;35.29;33.76
71559;BME280;59382;43.852;25.952;2022-08-19T09:38:38;100792.63;;;35.33;33.86
71559;BME280;59382;43.852;25.952;2022-08-19T09:41:08;100807.34;;;35.49;33.42
71559;BME280;59382;43.852;25.952;2022-08-19T09:43:34;100793.38;;;35.52;32.54
71559;BME280;59382;43.852;25.952;2022-08-19T09:46:05;100794.91;;;35.46;32.97
71559;BME280;59382;43.852;25.952;2022-08-19T09:48:32;100802.00;;;35.40;33.29
71559;BME280;59382;43.852;25.952;2022-08-19T09:51:12;100798.63;;;35.31;33.16
71559;BME280;59382;43.852;25.952;2022-08-19T09:53:40;100789.22;;;35.20;33.27
71559;BME280;59382;43.852;25.952;2022-08-19T09:56:06;100786.91;;;35.03;33.63
71559;BME280;59382;43.852;25.952;2022-08-19T09:58:32;100794.56;;;35.06;33.49
71559;BME280;59382;43.852;25.952;2022-08-19T10:01:00;100789.41;;;35.08;33.73
71559;BME280;59382;43.852;25.952;2022-08-19T10:03:26;100783.91;;;35.15;33.65
71559;BME280;59382;43.852;25.952;2022-08-19T10:05:53;100787.28;;;35.24;33.46
71559;BME280;59382;43.852;25.952;2022-08-19T10:08:22;100786.16;;;35.29;33.25
71559;BME280;59382;43.852;25.952;2022-08-19T10:10:49;100780.81;;;35.20;33.14
71559;BME280;59382;43.852;25.952;2022-08-19T10:13:18;100788.78;;;35.18;33.03
71559;BME280;59382;43.852;25.952;2022-08-19T10:15:54;100779.91;;;35.16;32.89
71559;BME280;59382;43.852;25.952;2022-08-19T10:18:23;100772.75;;;35.19;32.95
71559;BME280;59382;43.852;25.952;2022-08-19T10:20:50;100779.16;;;35.19;32.89
71559;BME280;59382;43.852;25.952;2022-08-19T10:23:20;100749.22;;;35.01;33.12
71559;BME280;59382;43.852;25.952;2022-08-19T10:25:45;100757.19;;;34.99;33.10
71559;BME280;59382;43.852;25.952;2022-08-19T10:28:34;100761.09;;;34.94;33.44
71559;BME280;59382;43.852;25.952;2022-08-19T10:31:19;100765.97;;;34.97;33.59
71559;BME280;59382;43.852;25.952;2022-08-19T10:33:47;100751.00;;;34.90;33.67
71559;BME280;59382;43.852;25.952;2022-08-19T10:36:19;100774.81;;;34.99;33.31
71559;BME280;59382;43.852;25.952;2022-08-19T10:38:48;100767.59;;;34.98;33.05
71559;BME280;59382;43.852;25.952;2022-08-19T10:41:21;100772.44;;;35.01;32.71
71559;BME280;59382;43.852;25.952;2022-08-19T10:43:52;100759.50;;;34.93;32.54
71559;BME280;59382;43.852;25.952;2022-08-19T10:46:21;100759.50;;;34.93;32.63
71559;BME280;59382;43.852;25.952;2022-08-19T10:48:47;100759.94;;;34.95;32.57
71559;BME280;59382;43.852;25.952;2022-08-19T10:51:12;100733.66;;;34.84;32.30
71559;BME280;59382;43.852;25.952;2022-08-19T10:53:57;100755.56;;;34.98;32.50
71559;BME280;59382;43.852;25.952;2022-08-19T10:56:23;100750.69;;;34.95;33.08
71559;BME280;59382;43.852;25.952;2022-08-19T10:59:07;100741.81;;;34.89;32.60
71559;BME280;59382;43.852;25.952;2022-08-19T11:01:35;100741.72;;;34.86;32.31
71559;BME280;59382;43.852;25.952;2022-08-19T11:04:03;100746.06;;;34.83;32.80
71559;BME280;59382;43.852;25.952;2022-08-19T11:06:41;100741.56;;;34.79;32.61
71559;BME280;59382;43.852;25.952;2022-08-19T11:09:10;100755.22;;;34.80;32.54
71559;BME280;59382;43.852;25.952;2022-08-19T11:11:42;100748.34;;;34.78;32.78
71559;BME280;59382;43.852;25.952;2022-08-19T11:14:10;100738.25;;;34.73;32.46
71559;BME280;59382;43.852;25.952;2022-08-19T11:16:36;100734.88;;;34.64;32.62
71559;BME280;59382;43.852;25.952;2022-08-19T11:19:04;100732.53;;;34.66;32.77
71559;BME280;59382;43.852;25.952;2022-08-19T11:21:33;100726.16;;;34.69;32.91
71559;BME280;59382;43.852;25.952;2022-08-19T11:24:03;100721.56;;;34.80;32.66
71559;BME280;59382;43.852;25.952;2022-08-19T11:26:32;100726.59;;;34.90;32.47
71559;BME280;59382;43.852;25.952;2022-08-19T11:29:03;100726.13;;;34.88;32.38
71559;BME280;59382;43.852;25.952;2022-08-19T11:31:31;100715.22;;;34.83;32.19
71559;BME280;59382;43.852;25.952;2022-08-19T11:34:00;100722.16;;;34.89;32.44
71559;BME280;59382;43.852;25.952;2022-08-19T11:36:27;100707.94;;;34.79;32.06
71559;BME280;59382;43.852;25.952;2022-08-19T11:38:54;100712.66;;;34.75;32.57
71559;BME280;59382;43.852;25.952;2022-08-19T11:41:22;100719.06;;;34.75;32.22
71559;BME280;59382;43.852;25.952;2022-08-19T11:43:52;100686.81;;;34.62;32.67
71559;BME280;59382;43.852;25.952;2022-08-19T11:46:20;100705.06;;;34.75;32.36
71559;BME280;59382;43.852;25.952;2022-08-19T11:48:46;100701.38;;;34.71;32.05
71559;BME280;59382;43.852;25.952;2022-08-19T11:51:16;100710.28;;;34.77;32.52
71559;BME280;59382;43.852;25.952;2022-08-19T11:53:42;100706.66;;;34.76;32.55
71559;BME280;59382;43.852;25.952;2022-08-19T11:56:08;100700.56;;;34.71;32.25
71559;BME280;59382;43.852;25.952;2022-08-19T11:58:34;100707.00;;;34.71;32.74
71559;BME280;59382;43.852;25.952;2022-08-19T12:01:01;100681.81;;;34.52;32.71
71559;BME280;59382;43.852;25.952;2022-08-19T12:03:30;100694.13;;;34.70;32.23
71559;BME280;59382;43.852;25.952;2022-08-19T12:05:56;100677.22;;;34.63;32.56
71559;BME280;59382;43.852;25.952;2022-08-19T12:08:22;100696.66;;;34.75;32.39
71559;BME280;59382;43.852;25.952;2022-08-19T12:10:47;100695.06;;;34.78;32.81
71559;BME280;59382;43.852;25.952;2022-08-19T12:13:20;100678.13;;;34.71;32.50
71559;BME280;59382;43.852;25.952;2022-08-19T12:15:47;100688.69;;;34.77;32.09
71559;BME280;59382;43.852;25.952;2022-08-19T12:18:13;100678.97;;;34.71;32.13
71559;BME280;59382;43.852;25.952;2022-08-19T12:20:42;100694.28;;;34.77;32.29
71559;BME280;59382;43.852;25.952;2022-08-19T12:23:11;100685.31;;;34.68;31.68
71559;BME280;59382;43.852;25.952;2022-08-19T12:25:38;100682.94;;;34.70;32.03
71559;BME280;59382;43.852;25.952;2022-08-19T12:28:19;100674.78;;;34.62;31.68
71559;BME280;59382;43.852;25.952;2022-08-19T12:30:46;100675.59;;;34.62;31.66
71559;BME280;59382;43.852;25.952;2022-08-19T12:33:11;100679.56;;;34.61;32.14
71559;BME280;59382;43.852;25.952;2022-08-19T12:35:42;100670.00;;;34.62;32.16
71559;BME280;59382;43.852;25.952;2022-08-19T12:38:14;100670.00;;;34.62;31.90
71559;BME280;59382;43.852;25.952;2022-08-19T12:40:40;100678.69;;;34.57;31.95
71559;BME280;59382;43.852;25.952;2022-08-19T12:43:06;100670.63;;;34.52;32.03
71559;BME280;59382;43.852;25.952;2022-08-19T12:45:32;100672.22;;;34.53;32.02
71559;BME280;59382;43.852;25.952;2022-08-19T12:48:00;100674.59;;;34.51;31.97
71559;BME280;59382;43.852;25.952;2022-08-19T12:50:26;100683.84;;;34.55;32.03
71559;BME280;59382;43.852;25.952;2022-08-19T12:52:51;100674.28;;;34.56;32.15
71559;BME280;59382;43.852;25.952;2022-08-19T12:55:18;100668.97;;;34.51;32.36
71559;BME280;59382;43.852;25.952;2022-08-19T12:58:00;100674.59;;;34.51;31.98